createdAt,value
2023-03-13T00:01:49.667Z,0.12
2023-03-13T00:04:18.647Z,0.06
2023-03-13T00:06:47.599Z,0.03
2023-03-13T00:09:18.941Z,0.08
2023-03-13T00:11:47.980Z,0.07
2023-03-13T00:14:17.656Z,0.04
2023-03-13T00:16:48.213Z,-0.01
2023-03-13T00:19:17.415Z,0.01
2023-03-13T00:21:46.449Z,-0.02
2023-03-13T00:24:15.486Z,0.04
2023-03-13T00:26:46.639Z,-0.02
2023-03-13T00:29:16.238Z,-0.02
2023-03-13T00:31:45.298Z,-0.10
2023-03-13T00:34:14.716Z,-0.13
2023-03-13T00:36:43.790Z,-0.12
2023-03-13T00:39:12.864Z,-0.16
2023-03-13T00:41:42.049Z,-0.21
2023-03-13T00:44:12.614Z,-0.12
2023-03-13T00:46:41.716Z,-0.21
2023-03-13T00:49:11.277Z,-0.28
2023-03-13T00:51:40.911Z,-0.29
2023-03-13T00:54:11.165Z,-0.24
2023-03-13T00:56:40.821Z,-0.31
2023-03-13T00:59:09.937Z,-0.27
2023-03-13T01:01:40.586Z,-0.29
2023-03-13T01:04:12.921Z,-0.31
2023-03-13T01:06:43.690Z,-0.28
2023-03-13T01:09:15.361Z,-0.28
2023-03-13T01:11:46.563Z,-0.29
2023-03-13T01:14:18.382Z,-0.33
2023-03-13T01:16:49.957Z,-0.37
2023-03-13T01:19:20.020Z,-0.35
2023-03-13T01:21:50.203Z,-0.34
2023-03-13T01:24:20.434Z,-0.42
2023-03-13T01:26:50.300Z,-0.48
2023-03-13T01:29:19.874Z,-0.47
2023-03-13T01:31:50.382Z,-0.49
2023-03-13T01:34:20.616Z,-0.50
2023-03-13T01:36:51.364Z,-0.49
2023-03-13T01:39:20.464Z,-0.55
2023-03-13T01:41:50.138Z,-0.56
2023-03-13T01:44:24.387Z,-0.59
2023-03-13T01:46:56.260Z,-0.59
2023-03-13T01:49:33.641Z,-0.60
2023-03-13T01:52:19.129Z,-0.59
2023-03-13T01:55:02.894Z,-0.68
2023-03-13T01:57:36.976Z,-0.75
2023-03-13T02:00:12.469Z,-0.70
2023-03-13T02:02:50.416Z,-0.75
2023-03-13T02:05:21.645Z,-0.79
2023-03-13T02:07:52.878Z,-0.75
2023-03-13T02:10:24.532Z,-0.70
2023-03-13T02:12:53.981Z,-0.69
2023-03-13T02:15:26.484Z,-0.66
2023-03-13T02:17:58.102Z,-0.67
2023-03-13T02:20:27.722Z,-0.66
2023-03-13T02:23:03.181Z,-0.60
2023-03-13T02:25:43.523Z,-0.61
2023-03-13T02:28:17.626Z,-0.56
2023-03-13T02:30:47.166Z,-0.55
2023-03-13T02:33:17.392Z,-0.64
2023-03-13T02:35:48.727Z,-0.64
2023-03-13T02:38:24.776Z,-0.60
2023-03-13T02:40:57.077Z,-0.65
2023-03-13T02:43:32.917Z,-0.77
2023-03-13T02:46:04.776Z,-0.80
2023-03-13T02:48:38.254Z,-0.84
2023-03-13T02:51:14.583Z,-0.89
2023-03-13T02:53:45.121Z,-1.03
2023-03-13T02:56:19.852Z,-0.99
2023-03-13T02:58:50.588Z,-0.99
2023-03-13T03:01:23.821Z,-1.06
2023-03-13T03:03:55.329Z,-0.98
2023-03-13T03:06:25.359Z,-1.00
2023-03-13T03:08:54.767Z,-0.94
2023-03-13T03:11:25.472Z,-0.93
2023-03-13T03:14:01.982Z,-0.92
2023-03-13T03:16:34.645Z,-0.97
2023-03-13T03:19:04.164Z,-0.99
2023-03-13T03:21:33.132Z,-1.00
2023-03-13T03:24:02.361Z,-1.04
2023-03-13T03:26:33.615Z,-1.03
2023-03-13T03:29:05.441Z,-0.99
2023-03-13T03:31:34.703Z,-1.00
2023-03-13T03:34:04.615Z,-1.03
2023-03-13T03:36:33.938Z,-1.02
2023-03-13T03:39:06.173Z,-1.06
2023-03-13T03:41:38.317Z,-1.02
2023-03-13T03:44:08.346Z,-0.98
2023-03-13T03:47:07.815Z,-0.94
2023-03-13T03:49:41.619Z,-0.94
2023-03-13T03:52:13.495Z,-0.94
2023-03-13T03:54:45.286Z,-0.89
2023-03-13T03:57:17.455Z,-0.88
2023-03-13T03:59:49.301Z,-0.84
2023-03-13T04:02:19.115Z,-0.74
2023-03-13T04:04:48.487Z,-0.83
2023-03-13T04:07:25.353Z,-0.76
2023-03-13T04:09:55.230Z,-0.81
2023-03-13T04:12:32.249Z,-0.83
2023-03-13T04:15:01.542Z,-0.80
2023-03-13T04:17:31.922Z,-0.83
2023-03-13T04:20:02.072Z,-0.89
2023-03-13T04:22:32.885Z,-0.87
2023-03-13T04:25:02.302Z,-0.91
2023-03-13T04:27:36.309Z,-0.87
2023-03-13T04:30:07.400Z,-0.90
2023-03-13T04:32:39.404Z,-0.93
2023-03-13T04:35:24.239Z,-0.96
2023-03-13T04:38:22.262Z,-1.02
2023-03-13T04:40:59.068Z,-1.12
2023-03-13T04:43:55.807Z,-1.14
2023-03-13T04:46:43.248Z,-1.29
2023-03-13T04:49:37.058Z,-1.38
2023-03-13T04:52:29.124Z,-1.41
2023-03-13T04:55:23.307Z,-1.46
2023-03-13T04:58:04.270Z,-1.49
2023-03-13T05:00:51.925Z,-1.39
2023-03-13T05:03:39.374Z,-1.18
2023-03-13T05:06:19.678Z,-1.10
2023-03-13T05:09:03.942Z,-0.89
2023-03-13T05:11:52.131Z,-0.71
2023-03-13T05:14:54.096Z,-0.53
2023-03-13T05:17:31.177Z,-0.19
2023-03-13T05:20:25.876Z,0.14
2023-03-13T05:23:03.224Z,0.54
2023-03-13T05:25:48.697Z,0.93
2023-03-13T05:28:36.337Z,1.30
2023-03-13T05:31:27.001Z,1.69
2023-03-13T05:34:20.622Z,2.28
2023-03-13T05:36:59.220Z,2.47
2023-03-13T05:39:39.116Z,2.50
2023-03-13T05:42:29.137Z,2.49
2023-03-13T05:45:21.119Z,2.59
2023-03-13T05:48:20.054Z,2.62
2023-03-13T05:51:14.409Z,3.02
2023-03-13T05:53:53.066Z,3.57
2023-03-13T06:00:03.541Z,5.09
2023-03-13T06:15:13.637Z,9.98
2023-03-13T06:17:55.127Z,10.60
2023-03-13T06:20:24.911Z,10.99
2023-03-13T06:22:54.115Z,11.08
2023-03-13T06:25:23.119Z,11.25
2023-03-13T06:27:52.502Z,11.49
2023-03-13T06:30:23.158Z,11.72
2023-03-13T06:32:53.088Z,11.93
2023-03-13T06:35:22.998Z,12.26
2023-03-13T06:37:52.089Z,12.51
2023-03-13T06:40:21.448Z,12.32
2023-03-13T06:42:50.778Z,12.24
2023-03-13T06:45:20.442Z,12.13
2023-03-13T06:47:53.070Z,11.89
2023-03-13T06:50:22.338Z,11.54
2023-03-13T06:52:52.007Z,11.23
2023-03-13T06:55:21.029Z,9.73
2023-03-13T06:57:52.494Z,8.41
2023-03-13T07:00:22.820Z,9.64
2023-03-13T07:02:54.206Z,9.92
2023-03-13T07:05:23.872Z,9.94
2023-03-13T07:07:53.610Z,10.01
2023-03-13T07:10:24.565Z,8.90
2023-03-13T07:12:54.277Z,9.55
2023-03-13T07:15:23.384Z,9.09
2023-03-13T07:17:53.857Z,9.40
2023-03-13T07:20:23.720Z,9.61
2023-03-13T07:22:56.052Z,8.64
2023-03-13T07:25:25.108Z,8.62
2023-03-13T07:27:54.708Z,8.87
2023-03-13T07:30:23.893Z,9.08
2023-03-13T07:32:55.278Z,9.29
2023-03-13T07:35:24.418Z,9.39
2023-03-13T07:37:54.116Z,9.57
2023-03-13T07:40:23.375Z,9.83
2023-03-13T07:42:52.468Z,9.69
2023-03-13T07:45:22.197Z,9.83
2023-03-13T07:47:51.266Z,9.91
2023-03-13T07:50:22.424Z,10.05
2023-03-13T07:52:54.964Z,9.98
2023-03-13T07:55:23.998Z,10.02
2023-03-13T07:57:53.049Z,10.00
2023-03-13T08:00:23.300Z,10.07
2023-03-13T08:02:53.072Z,10.27
2023-03-13T08:05:24.609Z,10.29
2023-03-13T08:07:53.669Z,10.20
2023-03-13T08:10:23.233Z,10.34
2023-03-13T08:12:52.907Z,10.54
2023-03-13T08:15:26.501Z,10.39
2023-03-13T08:17:55.700Z,10.72
2023-03-13T08:20:26.266Z,10.74
2023-03-13T08:22:58.418Z,9.86
2023-03-13T08:25:27.370Z,10.30
2023-03-13T08:27:57.001Z,10.25
2023-03-13T08:30:26.831Z,10.45
2023-03-13T08:32:56.131Z,10.93
2023-03-13T08:35:26.803Z,10.67
2023-03-13T08:37:55.866Z,10.95
2023-03-13T08:40:25.040Z,11.02
2023-03-13T08:42:55.410Z,11.15
2023-03-13T08:45:24.568Z,10.90
2023-03-13T08:47:54.868Z,10.50
2023-03-13T08:50:25.716Z,11.16
2023-03-13T08:52:55.456Z,10.78
2023-03-13T08:55:26.259Z,11.20
2023-03-13T08:57:56.152Z,11.45
2023-03-13T09:00:25.615Z,11.71
2023-03-13T09:02:54.761Z,12.03
2023-03-13T09:05:23.872Z,12.13
2023-03-13T09:07:55.593Z,12.30
2023-03-13T09:10:24.691Z,11.72
2023-03-13T09:12:53.808Z,11.98
2023-03-13T09:15:22.980Z,12.02
2023-03-13T09:17:52.159Z,12.20
2023-03-13T09:20:21.391Z,12.53
2023-03-13T09:22:50.856Z,12.60
2023-03-13T09:25:21.471Z,12.49
2023-03-13T09:27:50.669Z,12.64
2023-03-13T09:30:20.180Z,12.66
2023-03-13T09:32:49.326Z,12.26
2023-03-13T09:35:18.563Z,12.23
2023-03-13T09:37:47.795Z,12.16
2023-03-13T09:40:19.144Z,12.26
2023-03-13T09:42:52.651Z,12.37
2023-03-13T09:45:31.621Z,12.75
2023-03-13T09:48:04.206Z,12.94
2023-03-13T09:50:37.470Z,13.41
2023-03-13T09:53:15.712Z,13.05
2023-03-13T09:55:47.291Z,12.35
2023-03-13T09:58:22.000Z,12.61
2023-03-13T10:00:56.037Z,12.29
2023-03-13T10:03:29.785Z,12.81
2023-03-13T10:06:02.607Z,12.67
2023-03-13T10:08:34.360Z,13.00
2023-03-13T10:11:08.348Z,12.65
2023-03-13T10:13:43.809Z,12.95
2023-03-13T10:16:20.239Z,12.13
2023-03-13T10:18:54.896Z,12.12
2023-03-13T10:21:31.536Z,12.46
2023-03-13T10:24:05.869Z,12.54
2023-03-13T10:26:38.218Z,13.03
2023-03-13T10:29:22.653Z,13.23
2023-03-13T10:31:59.558Z,12.93
2023-03-13T10:34:30.749Z,13.25
2023-03-13T10:37:02.248Z,13.62
2023-03-13T10:39:31.710Z,13.10
2023-03-13T10:42:11.474Z,13.37
2023-03-13T10:44:41.991Z,13.68
2023-03-13T10:47:14.594Z,14.23
2023-03-13T10:49:50.615Z,14.53
2023-03-13T10:52:33.576Z,14.14
2023-03-13T10:55:06.430Z,14.25
2023-03-13T10:57:37.188Z,13.87
2023-03-13T11:00:30.522Z,14.36
2023-03-13T11:03:00.533Z,13.94
2023-03-13T11:17:26.589Z,15.79
2023-03-13T11:20:05.982Z,15.35
2023-03-13T11:22:57.049Z,15.38
2023-03-13T11:25:37.092Z,15.40
2023-03-13T11:28:24.483Z,15.09
2023-03-13T11:31:05.003Z,15.91
2023-03-13T11:33:53.691Z,15.21
2023-03-13T11:36:28.960Z,14.66
2023-03-13T11:39:07.914Z,16.03
2023-03-13T11:41:53.731Z,16.04
2023-03-13T11:44:31.525Z,16.20
2023-03-13T11:47:27.166Z,16.32
2023-03-13T11:50:10.344Z,16.75
2023-03-13T11:52:49.183Z,15.98
2023-03-13T11:55:36.383Z,16.15
2023-03-13T11:58:35.783Z,16.14
2023-03-13T12:01:09.581Z,15.80
2023-03-13T12:03:44.878Z,16.00
2023-03-13T12:06:28.197Z,16.01
2023-03-13T12:09:04.496Z,15.78
2023-03-13T12:11:38.327Z,16.29
2023-03-13T12:14:13.373Z,16.31
2023-03-13T12:16:47.142Z,16.71
2023-03-13T12:19:21.046Z,17.25
2023-03-13T12:21:54.838Z,17.15
2023-03-13T12:24:29.868Z,17.44
2023-03-13T12:27:04.866Z,17.23
2023-03-13T12:29:46.852Z,17.45
2023-03-13T12:32:21.637Z,17.43
2023-03-13T12:35:00.713Z,17.50
2023-03-13T12:37:40.604Z,17.31
2023-03-13T12:40:23.267Z,18.09
2023-03-13T12:42:58.723Z,18.38
2023-03-13T12:45:30.044Z,18.82
2023-03-13T12:48:24.709Z,19.06
2023-03-13T12:51:10.334Z,18.89
2023-03-13T12:54:01.816Z,19.38
2023-03-13T12:56:48.932Z,19.27
2023-03-13T12:59:21.123Z,19.36
2023-03-13T13:01:55.529Z,19.28
2023-03-13T13:04:27.665Z,19.36
2023-03-13T13:07:02.594Z,19.07
2023-03-13T13:09:36.400Z,19.05
2023-03-13T13:12:20.940Z,18.74
2023-03-13T13:15:06.404Z,18.14
2023-03-13T13:17:51.224Z,17.15
2023-03-13T13:20:48.890Z,17.31
2023-03-13T13:23:37.835Z,17.22
2023-03-13T13:26:46.904Z,17.00
2023-03-13T13:30:04.132Z,16.69
2023-03-13T13:32:44.023Z,16.33
2023-03-13T13:35:34.467Z,16.08
2023-03-13T13:38:41.071Z,16.14
2023-03-13T13:41:34.499Z,16.16
2023-03-13T13:44:29.219Z,15.74
2023-03-13T13:47:02.255Z,15.67
2023-03-13T13:49:54.610Z,15.16
2023-03-13T13:52:41.785Z,15.32
2023-03-13T13:55:33.948Z,15.24
2023-03-13T13:58:06.585Z,15.12
2023-03-13T14:00:43.100Z,14.59
2023-03-13T14:03:21.812Z,14.29
2023-03-13T14:05:56.136Z,14.21
2023-03-13T14:08:29.880Z,14.32
2023-03-13T14:11:11.311Z,14.69
2023-03-13T14:13:40.742Z,14.36
2023-03-13T14:16:24.799Z,14.51
2023-03-13T14:18:54.598Z,13.91
2023-03-13T14:21:27.550Z,14.41
2023-03-13T14:23:57.603Z,14.49
2023-03-13T14:26:28.836Z,14.48
2023-03-13T14:29:01.378Z,14.62
2023-03-13T14:31:32.350Z,14.89
2023-03-13T14:34:03.033Z,14.46
2023-03-13T14:36:47.930Z,14.34
2023-03-13T14:39:20.836Z,14.36
2023-03-13T14:41:52.142Z,14.39
2023-03-13T14:44:25.988Z,13.64
2023-03-13T14:46:58.101Z,13.66
2023-03-13T14:49:31.903Z,13.70
2023-03-13T14:52:04.577Z,13.82
2023-03-13T14:54:35.178Z,13.30
2023-03-13T14:57:07.788Z,13.26
2023-03-13T14:59:37.887Z,13.19
2023-03-13T15:02:18.627Z,13.22
2023-03-13T15:04:57.642Z,13.40
2023-03-13T15:07:29.450Z,13.67
2023-03-13T15:09:58.581Z,12.96
2023-03-13T15:12:28.900Z,13.20
2023-03-13T15:14:58.534Z,13.15
2023-03-13T15:17:29.271Z,13.35
2023-03-13T15:20:00.526Z,13.42
2023-03-13T15:22:33.387Z,13.22
2023-03-13T15:25:06.519Z,13.05
2023-03-13T15:27:37.409Z,13.09
2023-03-13T15:30:07.747Z,12.94
2023-03-13T15:32:39.793Z,12.56
2023-03-13T15:35:27.650Z,12.65
2023-03-13T15:37:58.594Z,12.49
2023-03-13T15:40:28.927Z,12.29
2023-03-13T15:42:58.589Z,12.23
2023-03-13T15:45:28.000Z,11.97
2023-03-13T15:47:57.367Z,12.09
2023-03-13T15:50:31.084Z,11.88
2023-03-13T15:53:02.423Z,11.81
2023-03-13T15:55:32.078Z,11.50
2023-03-13T15:58:01.809Z,11.44
2023-03-13T16:00:31.561Z,11.33
2023-03-13T16:03:00.809Z,11.41
2023-03-13T16:05:30.645Z,11.35
2023-03-13T16:07:59.782Z,11.09
2023-03-13T16:10:31.138Z,11.12
2023-03-13T16:13:03.661Z,11.19
2023-03-13T16:15:32.897Z,11.17
2023-03-13T16:18:02.087Z,11.23
2023-03-13T16:20:32.261Z,11.21
2023-03-13T16:23:04.157Z,11.22
2023-03-13T16:25:35.304Z,11.21
2023-03-13T16:28:04.406Z,11.13
2023-03-13T16:30:35.226Z,11.06
2023-03-13T16:33:04.546Z,10.94
2023-03-13T16:35:33.811Z,10.83
2023-03-13T16:38:03.970Z,10.83
2023-03-13T16:40:36.132Z,10.74
2023-03-13T16:43:05.351Z,10.58
2023-03-13T16:45:34.336Z,10.50
2023-03-13T16:48:03.522Z,10.36
2023-03-13T16:50:35.310Z,10.24
2023-03-13T16:53:05.831Z,10.13
2023-03-13T16:55:37.603Z,10.06
2023-03-13T16:58:06.968Z,9.99
2023-03-13T17:00:36.963Z,9.88
2023-03-13T17:03:06.174Z,9.87
2023-03-13T17:05:35.533Z,9.74
2023-03-13T17:08:04.756Z,9.61
2023-03-13T17:10:36.693Z,9.55
2023-03-13T17:13:06.907Z,9.48
2023-03-13T17:15:36.087Z,9.41
2023-03-13T17:18:05.390Z,9.28
2023-03-13T17:20:34.616Z,9.20
2023-03-13T17:23:05.837Z,9.13
2023-03-13T17:25:36.635Z,9.06
2023-03-13T17:28:06.131Z,8.88
2023-03-13T17:30:35.747Z,8.76
2023-03-13T17:33:06.264Z,8.63
2023-03-13T17:35:36.115Z,8.51
2023-03-13T17:38:05.302Z,8.31
2023-03-13T17:40:38.164Z,8.18
2023-03-13T17:43:07.295Z,8.00
2023-03-13T17:45:38.332Z,7.75
2023-03-13T17:48:13.201Z,7.60
2023-03-13T17:50:42.461Z,7.48
2023-03-13T17:53:11.696Z,7.37
2023-03-13T17:55:43.490Z,7.23
2023-03-13T17:58:13.043Z,7.08
2023-03-13T18:00:45.641Z,6.97
2023-03-13T18:03:15.182Z,6.83
2023-03-13T18:05:44.460Z,6.78
2023-03-13T18:08:13.838Z,6.70
2023-03-13T18:10:44.976Z,6.67
2023-03-13T18:13:14.160Z,6.65
2023-03-13T18:15:43.941Z,6.63
2023-03-13T18:18:18.275Z,6.65
2023-03-13T18:20:47.713Z,6.68
2023-03-13T18:23:17.093Z,6.63
2023-03-13T18:25:48.920Z,6.61
2023-03-13T18:28:18.133Z,6.57
2023-03-13T18:30:47.201Z,6.58
2023-03-13T18:33:16.467Z,6.46
2023-03-13T18:35:45.630Z,6.44
2023-03-13T18:38:14.827Z,6.33
2023-03-13T18:40:43.994Z,6.35
2023-03-13T18:43:14.503Z,6.34
2023-03-13T18:45:43.702Z,6.17
2023-03-13T18:48:13.154Z,6.16
2023-03-13T18:50:42.538Z,6.19
2023-03-13T18:53:12.577Z,6.10
2023-03-13T18:55:41.677Z,6.10
2023-03-13T18:58:12.895Z,5.96
2023-03-13T19:00:44.278Z,5.89
2023-03-13T19:03:13.581Z,5.82
2023-03-13T19:05:43.844Z,5.68
2023-03-13T19:08:12.952Z,5.66
2023-03-13T19:10:42.367Z,5.64
2023-03-13T19:13:11.428Z,5.53
2023-03-13T19:15:40.389Z,5.55
2023-03-13T19:18:14.055Z,5.38
2023-03-13T19:20:43.137Z,5.32
2023-03-13T19:23:12.183Z,5.25
2023-03-13T19:25:41.275Z,5.17
2023-03-13T19:28:12.307Z,5.15
2023-03-13T19:30:44.026Z,5.09
2023-03-13T19:33:14.646Z,5.06
2023-03-13T19:35:44.456Z,5.09
2023-03-13T19:38:13.744Z,5.04
2023-03-13T19:40:42.789Z,5.02
2023-03-13T19:43:12.405Z,5.07
2023-03-13T19:45:41.684Z,4.51
2023-03-13T19:48:11.211Z,4.78
2023-03-13T19:50:41.791Z,4.82
2023-03-13T19:53:14.582Z,4.83
2023-03-13T19:55:43.761Z,4.93
2023-03-13T19:58:13.086Z,4.90
2023-03-13T20:00:42.275Z,4.87
2023-03-13T20:03:11.374Z,4.68
2023-03-13T20:05:41.912Z,4.84
2023-03-13T20:08:11.080Z,4.71
2023-03-13T20:10:40.109Z,4.80
2023-03-13T20:13:09.149Z,4.74
2023-03-13T20:15:40.113Z,4.60
2023-03-13T20:18:09.899Z,4.54
2023-03-13T20:20:39.081Z,4.48
2023-03-13T20:23:11.017Z,4.45
2023-03-13T20:25:40.297Z,4.37
2023-03-13T20:28:09.413Z,4.42
2023-03-13T20:30:43.094Z,4.34
2023-03-13T20:33:13.199Z,4.32
2023-03-13T20:35:42.673Z,4.28
2023-03-13T20:38:13.263Z,4.16
2023-03-13T20:40:42.346Z,4.15
2023-03-13T20:43:12.208Z,4.03
2023-03-13T20:45:41.195Z,3.98
2023-03-13T20:48:10.293Z,3.84
2023-03-13T20:50:39.898Z,3.83
2023-03-13T20:53:09.042Z,3.71
2023-03-13T20:55:40.782Z,3.77
2023-03-13T20:58:10.899Z,3.72
2023-03-13T21:00:40.485Z,3.64
2023-03-13T21:03:10.078Z,3.69
2023-03-13T21:05:40.917Z,3.67
2023-03-13T21:08:11.640Z,3.57
2023-03-13T21:10:43.084Z,3.51
2023-03-13T21:13:12.447Z,3.39
2023-03-13T21:15:42.229Z,3.41
2023-03-13T21:18:11.320Z,3.47
2023-03-13T21:20:41.615Z,3.34
2023-03-13T21:23:10.652Z,3.27
2023-03-13T21:25:39.649Z,3.18
2023-03-13T21:28:10.546Z,3.07
2023-03-13T21:30:39.938Z,2.97
2023-03-13T21:33:09.010Z,2.85
2023-03-13T21:35:38.082Z,2.89
2023-03-13T21:38:07.733Z,2.90
2023-03-13T21:40:37.679Z,2.82
2023-03-13T21:43:07.372Z,2.84
2023-03-13T21:45:38.892Z,2.87
2023-03-13T21:48:08.651Z,2.91
2023-03-13T21:50:41.401Z,2.91
2023-03-13T21:53:11.018Z,2.97
2023-03-13T21:55:41.674Z,2.95
2023-03-13T21:58:10.792Z,2.95
2023-03-13T22:00:41.552Z,2.91
2023-03-13T22:03:11.036Z,2.92
2023-03-13T22:05:43.559Z,2.96
2023-03-13T22:08:12.961Z,2.94
2023-03-13T22:10:42.248Z,3.04
2023-03-13T22:13:12.302Z,3.04
2023-03-13T22:15:46.650Z,2.98
2023-03-13T22:18:16.788Z,3.03
2023-03-13T22:20:46.107Z,3.00
2023-03-13T22:23:15.153Z,2.95
2023-03-13T22:25:46.031Z,3.00
2023-03-13T22:28:15.116Z,2.96
2023-03-13T22:30:46.510Z,2.85
2023-03-13T22:33:16.349Z,2.98
2023-03-13T22:35:48.366Z,2.92
2023-03-13T22:38:17.414Z,2.90
2023-03-13T22:40:46.587Z,2.92
2023-03-13T22:43:15.658Z,2.84
2023-03-13T22:45:49.150Z,2.80
2023-03-13T22:48:18.127Z,2.77
2023-03-13T22:50:47.168Z,2.76
2023-03-13T22:53:17.420Z,2.75
2023-03-13T22:55:46.471Z,2.51
2023-03-13T22:58:17.414Z,2.64
2023-03-13T23:00:49.521Z,2.55
2023-03-13T23:03:19.116Z,2.59
2023-03-13T23:05:48.776Z,2.59
2023-03-13T23:08:18.560Z,2.49
2023-03-13T23:10:48.959Z,2.54
2023-03-13T23:13:18.595Z,2.44
2023-03-13T23:15:56.416Z,2.31
2023-03-13T23:18:26.027Z,2.25
2023-03-13T23:20:56.304Z,2.18
2023-03-13T23:23:25.472Z,2.14
2023-03-13T23:25:54.524Z,2.13
2023-03-13T23:28:23.620Z,2.26
2023-03-13T23:30:54.319Z,2.13
2023-03-13T23:33:23.867Z,2.16
2023-03-13T23:35:52.890Z,2.22
2023-03-13T23:38:24.329Z,2.09
2023-03-13T23:40:54.471Z,2.19
2023-03-13T23:43:23.564Z,2.20
2023-03-13T23:45:54.501Z,2.10
2023-03-13T23:48:23.508Z,2.03
2023-03-13T23:50:53.030Z,2.01
2023-03-13T23:53:22.060Z,1.98
2023-03-13T23:55:59.489Z,1.97
2023-03-13T23:58:28.569Z,1.92
